sensor_id;sensor_type;location;lat;lon;timestamp;temperature;humidity
1129;DHT22;553;51.038;7.216;2022-09-09T00:01:36;17.10;99.90
1129;DHT22;553;51.038;7.216;2022-09-09T00:09:27;17.20;99.90
1129;DHT22;553;51.038;7.216;2022-09-09T00:12:02;17.20;99.90
1129;DHT22;553;51.038;7.216;2022-09-09T00:14:50;17.20;99.90
1129;DHT22;553;51.038;7.216;2022-09-09T00:17:37;17.20;99.90
1129;DHT22;553;51.038;7.216;2022-09-09T00:20:33;17.20;99.90
1129;DHT22;553;51.038;7.216;2022-09-09T00:23:33;17.20;99.90
1129;DHT22;553;51.038;7.216;2022-09-09T00:26:09;17.20;99.90
1129;DHT22;553;51.038;7.216;2022-09-09T00:31:28;17.20;99.90
1129;DHT22;553;51.038;7.216;2022-09-09T00:34:00;17.20;99.90
1129;DHT22;553;51.038;7.216;2022-09-09T00:36:30;17.10;99.90
1129;DHT22;553;51.038;7.216;2022-09-09T00:39:00;17.10;99.90
1129;DHT22;553;51.038;7.216;2022-09-09T00:41:55;17.10;99.90
1129;DHT22;553;51.038;7.216;2022-09-09T00:44:32;17.00;99.90
1129;DHT22;553;51.038;7.216;2022-09-09T00:55:36;16.80;99.90
1129;DHT22;553;51.038;7.216;2022-09-09T00:58:08;16.90;99.90
1129;DHT22;553;51.038;7.216;2022-09-09T01:00:43;17.00;99.90
1129;DHT22;553;51.038;7.216;2022-09-09T01:03:25;17.10;99.90
1129;DHT22;553;51.038;7.216;2022-09-09T01:11:26;17.10;99.90
1129;DHT22;553;51.038;7.216;2022-09-09T01:14:29;16.90;99.90
1129;DHT22;553;51.038;7.216;2022-09-09T01:17:24;17.00;99.90
1129;DHT22;553;51.038;7.216;2022-09-09T01:20:53;17.00;99.90
1129;DHT22;553;51.038;7.216;2022-09-09T01:26:41;17.10;99.90
1129;DHT22;553;51.038;7.216;2022-09-09T01:29:17;17.00;99.90
1129;DHT22;553;51.038;7.216;2022-09-09T01:31:54;17.00;99.90
1129;DHT22;553;51.038;7.216;2022-09-09T01:34:24;17.00;99.90
1129;DHT22;553;51.038;7.216;2022-09-09T01:36:58;17.00;99.90
1129;DHT22;553;51.038;7.216;2022-09-09T01:39:26;16.90;99.90
1129;DHT22;553;51.038;7.216;2022-09-09T01:42:04;16.90;99.90
1129;DHT22;553;51.038;7.216;2022-09-09T01:44:33;16.90;99.90
1129;DHT22;553;51.038;7.216;2022-09-09T01:47:01;16.90;99.90
1129;DHT22;553;51.038;7.216;2022-09-09T01:49:28;17.00;99.90
1129;DHT22;553;51.038;7.216;2022-09-09T01:51:56;16.90;99.90
1129;DHT22;553;51.038;7.216;2022-09-09T01:54:32;16.90;99.90
1129;DHT22;553;51.038;7.216;2022-09-09T01:57:25;16.90;99.90
1129;DHT22;553;51.038;7.216;2022-09-09T01:59:57;17.00;99.90
1129;DHT22;553;51.038;7.216;2022-09-09T02:03:09;16.90;99.90
1129;DHT22;553;51.038;7.216;2022-09-09T02:05:40;17.00;99.90
1129;DHT22;553;51.038;7.216;2022-09-09T02:08:25;17.00;99.90
1129;DHT22;553;51.038;7.216;2022-09-09T02:11:11;16.90;99.90
1129;DHT22;553;51.038;7.216;2022-09-09T02:13:45;16.80;99.90
1129;DHT22;553;51.038;7.216;2022-09-09T02:21:33;16.90;99.90
1129;DHT22;553;51.038;7.216;2022-09-09T02:24:05;17.00;99.90
1129;DHT22;553;51.038;7.216;2022-09-09T02:26:42;17.00;99.90
1129;DHT22;553;51.038;7.216;2022-09-09T02:29:17;17.00;99.90
1129;DHT22;553;51.038;7.216;2022-09-09T02:31:47;17.00;99.90
1129;DHT22;553;51.038;7.216;2022-09-09T02:34:22;17.00;99.90
1129;DHT22;553;51.038;7.216;2022-09-09T02:36:51;17.00;99.90
1129;DHT22;553;51.038;7.216;2022-09-09T02:39:20;17.10;99.90
1129;DHT22;553;51.038;7.216;2022-09-09T02:41:49;17.10;99.90
1129;DHT22;553;51.038;7.216;2022-09-09T02:44:17;17.10;99.90
1129;DHT22;553;51.038;7.216;2022-09-09T02:46:51;17.00;99.90
1129;DHT22;553;51.038;7.216;2022-09-09T02:54:37;17.00;99.90
1129;DHT22;553;51.038;7.216;2022-09-09T02:57:23;17.00;99.90
1129;DHT22;553;51.038;7.216;2022-09-09T02:59:53;17.00;99.90
1129;DHT22;553;51.038;7.216;2022-09-09T03:02:23;17.00;99.90
1129;DHT22;553;51.038;7.216;2022-09-09T03:04:56;17.00;99.90
1129;DHT22;553;51.038;7.216;2022-09-09T03:07:23;17.00;99.90
1129;DHT22;553;51.038;7.216;2022-09-09T03:09:51;17.00;99.90
1129;DHT22;553;51.038;7.216;2022-09-09T03:12:18;17.00;99.90
1129;DHT22;553;51.038;7.216;2022-09-09T03:14:45;17.00;99.90
1129;DHT22;553;51.038;7.216;2022-09-09T03:17:12;17.00;99.90
1129;DHT22;553;51.038;7.216;2022-09-09T03:19:46;17.00;99.90
1129;DHT22;553;51.038;7.216;2022-09-09T03:22:13;17.10;99.90
1129;DHT22;553;51.038;7.216;2022-09-09T03:24:41;17.00;99.90
1129;DHT22;553;51.038;7.216;2022-09-09T03:27:08;17.00;99.90
1129;DHT22;553;51.038;7.216;2022-09-09T03:29:37;17.10;99.90
1129;DHT22;553;51.038;7.216;2022-09-09T03:32:07;17.00;99.90
1129;DHT22;553;51.038;7.216;2022-09-09T03:34:37;17.00;99.90
1129;DHT22;553;51.038;7.216;2022-09-09T03:37:09;17.00;99.90
1129;DHT22;553;51.038;7.216;2022-09-09T03:39:36;17.00;99.90
1129;DHT22;553;51.038;7.216;2022-09-09T03:42:03;16.90;99.90
1129;DHT22;553;51.038;7.216;2022-09-09T03:44:31;16.90;99.90
1129;DHT22;553;51.038;7.216;2022-09-09T03:46:57;16.90;99.90
1129;DHT22;553;51.038;7.216;2022-09-09T03:49:27;16.90;99.90
1129;DHT22;553;51.038;7.216;2022-09-09T03:51:56;16.90;99.90
1129;DHT22;553;51.038;7.216;2022-09-09T03:54:24;16.80;99.90
1129;DHT22;553;51.038;7.216;2022-09-09T03:56:51;16.80;99.90
1129;DHT22;553;51.038;7.216;2022-09-09T03:59:17;16.90;99.90
1129;DHT22;553;51.038;7.216;2022-09-09T04:01:44;16.80;99.90
1129;DHT22;553;51.038;7.216;2022-09-09T04:04:12;16.80;99.90
1129;DHT22;553;51.038;7.216;2022-09-09T04:06:38;16.90;99.90
1129;DHT22;553;51.038;7.216;2022-09-09T04:09:06;16.90;99.90
1129;DHT22;553;51.038;7.216;2022-09-09T04:11:33;16.90;99.90
1129;DHT22;553;51.038;7.216;2022-09-09T04:14:00;16.90;99.90
1129;DHT22;553;51.038;7.216;2022-09-09T04:16:28;16.90;99.90
1129;DHT22;553;51.038;7.216;2022-09-09T04:18:55;16.90;99.90
1129;DHT22;553;51.038;7.216;2022-09-09T04:21:22;16.90;99.90
1129;DHT22;553;51.038;7.216;2022-09-09T04:23:49;16.90;99.90
1129;DHT22;553;51.038;7.216;2022-09-09T04:26:16;16.90;99.90
1129;DHT22;553;51.038;7.216;2022-09-09T04:28:44;16.90;99.90
1129;DHT22;553;51.038;7.216;2022-09-09T04:31:21;16.90;99.90
1129;DHT22;553;51.038;7.216;2022-09-09T04:33:53;17.00;99.90
1129;DHT22;553;51.038;7.216;2022-09-09T04:36:21;16.90;99.90
1129;DHT22;553;51.038;7.216;2022-09-09T04:38:49;16.90;99.90
1129;DHT22;553;51.038;7.216;2022-09-09T04:41:17;16.80;99.90
1129;DHT22;553;51.038;7.216;2022-09-09T04:43:45;16.80;99.90
1129;DHT22;553;51.038;7.216;2022-09-09T04:46:14;16.80;99.90
1129;DHT22;553;51.038;7.216;2022-09-09T04:48:42;16.80;99.90
1129;DHT22;553;51.038;7.216;2022-09-09T04:51:13;16.80;99.90
1129;DHT22;553;51.038;7.216;2022-09-09T04:53:40;16.80;99.90
1129;DHT22;553;51.038;7.216;2022-09-09T04:56:12;16.80;99.90
1129;DHT22;553;51.038;7.216;2022-09-09T04:58:47;16.80;99.90
1129;DHT22;553;51.038;7.216;2022-09-09T05:01:17;16.90;99.90
1129;DHT22;553;51.038;7.216;2022-09-09T05:03:45;16.90;99.90
1129;DHT22;553;51.038;7.216;2022-09-09T05:06:18;16.80;99.90
1129;DHT22;553;51.038;7.216;2022-09-09T05:08:47;16.80;99.90
1129;DHT22;553;51.038;7.216;2022-09-09T05:11:30;16.80;99.90
1129;DHT22;553;51.038;7.216;2022-09-09T05:14:04;16.80;99.90
1129;DHT22;553;51.038;7.216;2022-09-09T05:16:31;16.80;99.90
1129;DHT22;553;51.038;7.216;2022-09-09T05:18:58;16.70;99.90
1129;DHT22;553;51.038;7.216;2022-09-09T05:21:29;16.70;99.90
1129;DHT22;553;51.038;7.216;2022-09-09T05:23:57;16.70;99.90
1129;DHT22;553;51.038;7.216;2022-09-09T05:26:24;16.70;99.90
1129;DHT22;553;51.038;7.216;2022-09-09T05:28:52;16.80;99.90
1129;DHT22;553;51.038;7.216;2022-09-09T05:31:19;16.90;99.90
1129;DHT22;553;51.038;7.216;2022-09-09T05:33:49;16.80;99.90
1129;DHT22;553;51.038;7.216;2022-09-09T05:36:19;16.80;99.90
1129;DHT22;553;51.038;7.216;2022-09-09T05:38:49;16.80;99.90
1129;DHT22;553;51.038;7.216;2022-09-09T05:41:17;16.70;99.90
1129;DHT22;553;51.038;7.216;2022-09-09T05:43:45;16.70;99.90
1129;DHT22;553;51.038;7.216;2022-09-09T05:46:15;16.60;99.90
1129;DHT22;553;51.038;7.216;2022-09-09T05:48:44;16.50;99.90
1129;DHT22;553;51.038;7.216;2022-09-09T05:51:19;16.60;99.90
1129;DHT22;553;51.038;7.216;2022-09-09T05:53:47;16.70;99.90
1129;DHT22;553;51.038;7.216;2022-09-09T05:56:19;16.60;99.90
1129;DHT22;553;51.038;7.216;2022-09-09T05:58:47;16.60;99.90
1129;DHT22;553;51.038;7.216;2022-09-09T06:01:16;16.50;99.90
1129;DHT22;553;51.038;7.216;2022-09-09T06:03:45;16.50;99.90
1129;DHT22;553;51.038;7.216;2022-09-09T06:06:15;16.50;99.90
1129;DHT22;553;51.038;7.216;2022-09-09T06:08:44;16.50;99.90
1129;DHT22;553;51.038;7.216;2022-09-09T06:11:16;16.40;99.90
1129;DHT22;553;51.038;7.216;2022-09-09T06:13:43;16.40;99.90
1129;DHT22;553;51.038;7.216;2022-09-09T06:16:12;16.40;99.90
1129;DHT22;553;51.038;7.216;2022-09-09T06:18:41;16.50;99.90
1129;DHT22;553;51.038;7.216;2022-09-09T06:21:15;16.50;99.90
1129;DHT22;553;51.038;7.216;2022-09-09T06:23:43;16.50;99.90
1129;DHT22;553;51.038;7.216;2022-09-09T06:26:19;16.50;99.90
1129;DHT22;553;51.038;7.216;2022-09-09T06:28:49;16.50;99.90
1129;DHT22;553;51.038;7.216;2022-09-09T06:31:18;16.50;99.90
1129;DHT22;553;51.038;7.216;2022-09-09T06:33:53;16.50;99.90
1129;DHT22;553;51.038;7.216;2022-09-09T06:36:25;16.40;99.90
1129;DHT22;553;51.038;7.216;2022-09-09T06:38:52;16.50;99.90
1129;DHT22;553;51.038;7.216;2022-09-09T06:41:21;16.50;99.90
1129;DHT22;553;51.038;7.216;2022-09-09T06:43:49;16.50;99.90
1129;DHT22;553;51.038;7.216;2022-09-09T06:46:21;16.60;99.90
1129;DHT22;553;51.038;7.216;2022-09-09T06:48:49;16.70;99.90
1129;DHT22;553;51.038;7.216;2022-09-09T06:51:19;16.70;99.90
1129;DHT22;553;51.038;7.216;2022-09-09T06:53:50;17.10;99.90
1129;DHT22;553;51.038;7.216;2022-09-09T06:56:23;17.00;99.90
1129;DHT22;553;51.038;7.216;2022-09-09T06:58:52;17.00;99.90
1129;DHT22;553;51.038;7.216;2022-09-09T07:01:29;16.90;99.90
1129;DHT22;553;51.038;7.216;2022-09-09T07:03:59;16.90;99.90
1129;DHT22;553;51.038;7.216;2022-09-09T07:06:42;16.90;99.90
1129;DHT22;553;51.038;7.216;2022-09-09T07:09:15;16.90;99.90
1129;DHT22;553;51.038;7.216;2022-09-09T07:11:50;17.00;99.90
1129;DHT22;553;51.038;7.216;2022-09-09T07:14:19;17.10;99.90
1129;DHT22;553;51.038;7.216;2022-09-09T07:16:51;17.20;99.90
1129;DHT22;553;51.038;7.216;2022-09-09T07:19:23;17.40;99.90
1129;DHT22;553;51.038;7.216;2022-09-09T07:21:52;17.60;99.90
1129;DHT22;553;51.038;7.216;2022-09-09T07:24:21;17.70;99.90
1129;DHT22;553;51.038;7.216;2022-09-09T07:26:48;17.90;99.90
1129;DHT22;553;51.038;7.216;2022-09-09T07:29:16;18.10;99.90
1129;DHT22;553;51.038;7.216;2022-09-09T07:31:46;18.30;99.90
1129;DHT22;553;51.038;7.216;2022-09-09T07:34:19;18.50;99.90
1129;DHT22;553;51.038;7.216;2022-09-09T07:36:46;18.60;99.90
1129;DHT22;553;51.038;7.216;2022-09-09T07:39:13;18.60;99.90
1129;DHT22;553;51.038;7.216;2022-09-09T07:41:47;18.70;99.90
1129;DHT22;553;51.038;7.216;2022-09-09T07:44:20;18.70;99.90
1129;DHT22;553;51.038;7.216;2022-09-09T07:46:56;18.80;99.90
1129;DHT22;553;51.038;7.216;2022-09-09T07:49:28;18.80;99.90
1129;DHT22;553;51.038;7.216;2022-09-09T07:52:00;18.80;99.70
1129;DHT22;553;51.038;7.216;2022-09-09T07:54:27;18.90;99.90
1129;DHT22;553;51.038;7.216;2022-09-09T07:56:54;18.80;99.90
1129;DHT22;553;51.038;7.216;2022-09-09T07:59:24;18.90;99.50
1129;DHT22;553;51.038;7.216;2022-09-09T08:01:52;18.90;99.70
1129;DHT22;553;51.038;7.216;2022-09-09T08:04:26;18.90;98.50
1129;DHT22;553;51.038;7.216;2022-09-09T08:06:59;18.80;98.70
1129;DHT22;553;51.038;7.216;2022-09-09T08:09:28;18.80;99.20
1129;DHT22;553;51.038;7.216;2022-09-09T08:12:16;18.80;98.20
1129;DHT22;553;51.038;7.216;2022-09-09T08:14:43;18.60;97.80
1129;DHT22;553;51.038;7.216;2022-09-09T08:17:10;18.60;95.90
1129;DHT22;553;51.038;7.216;2022-09-09T08:19:37;18.70;98.50
1129;DHT22;553;51.038;7.216;2022-09-09T08:22:10;18.80;98.10
1129;DHT22;553;51.038;7.216;2022-09-09T08:24:38;18.70;98.90
1129;DHT22;553;51.038;7.216;2022-09-09T08:27:06;18.70;96.40
1129;DHT22;553;51.038;7.216;2022-09-09T08:29:33;18.70;97.30
1129;DHT22;553;51.038;7.216;2022-09-09T08:32:00;18.70;96.80
1129;DHT22;553;51.038;7.216;2022-09-09T08:34:28;18.80;95.90
1129;DHT22;553;51.038;7.216;2022-09-09T08:36:59;18.90;96.10
1129;DHT22;553;51.038;7.216;2022-09-09T08:39:32;19.00;95.80
1129;DHT22;553;51.038;7.216;2022-09-09T08:44:57;19.10;94.30
1129;DHT22;553;51.038;7.216;2022-09-09T08:50:19;19.10;94.20
1129;DHT22;553;51.038;7.216;2022-09-09T08:55:37;19.10;92.20
1129;DHT22;553;51.038;7.216;2022-09-09T09:04:00;19.20;91.90
1129;DHT22;553;51.038;7.216;2022-09-09T09:09:34;19.30;91.50
1129;DHT22;553;51.038;7.216;2022-09-09T09:12:18;19.30;89.70
1129;DHT22;553;51.038;7.216;2022-09-09T09:14:47;19.20;91.10
1129;DHT22;553;51.038;7.216;2022-09-09T09:17:20;19.20;89.80
1129;DHT22;553;51.038;7.216;2022-09-09T09:19:49;19.30;90.10
1129;DHT22;553;51.038;7.216;2022-09-09T09:22:32;19.30;91.10
1129;DHT22;553;51.038;7.216;2022-09-09T09:30:25;19.50;89.70
1129;DHT22;553;51.038;7.216;2022-09-09T09:33:20;19.70;90.30
1129;DHT22;553;51.038;7.216;2022-09-09T09:35:50;19.90;90.40
1129;DHT22;553;51.038;7.216;2022-09-09T09:38:21;20.00;88.90
1129;DHT22;553;51.038;7.216;2022-09-09T09:41:09;20.20;88.30
1129;DHT22;553;51.038;7.216;2022-09-09T09:43:37;20.30;87.10
1129;DHT22;553;51.038;7.216;2022-09-09T09:46:23;20.40;88.20
1129;DHT22;553;51.038;7.216;2022-09-09T09:49:05;20.50;87.40
1129;DHT22;553;51.038;7.216;2022-09-09T09:51:33;20.40;86.20
1129;DHT22;553;51.038;7.216;2022-09-09T09:54:27;20.40;86.20
1129;DHT22;553;51.038;7.216;2022-09-09T09:57:15;20.40;86.30
1129;DHT22;553;51.038;7.216;2022-09-09T09:59:45;20.30;86.00
1129;DHT22;553;51.038;7.216;2022-09-09T10:02:24;20.10;86.80
1129;DHT22;553;51.038;7.216;2022-09-09T10:05:16;20.10;87.20
1129;DHT22;553;51.038;7.216;2022-09-09T10:08:11;19.90;86.30
1129;DHT22;553;51.038;7.216;2022-09-09T10:11:04;19.70;87.00
1129;DHT22;553;51.038;7.216;2022-09-09T10:13:46;19.70;88.10
1129;DHT22;553;51.038;7.216;2022-09-09T10:19:04;19.30;94.10
1129;DHT22;553;51.038;7.216;2022-09-09T10:33:20;19.50;92.30
1129;DHT22;553;51.038;7.216;2022-09-09T10:36:18;19.40;92.70
1129;DHT22;553;51.038;7.216;2022-09-09T10:38:47;19.50;92.80
1129;DHT22;553;51.038;7.216;2022-09-09T10:41:45;19.50;91.30
1129;DHT22;553;51.038;7.216;2022-09-09T10:50:15;19.80;89.40
1129;DHT22;553;51.038;7.216;2022-09-09T10:53:30;19.70;90.50
1129;DHT22;553;51.038;7.216;2022-09-09T10:56:13;19.70;87.70
1129;DHT22;553;51.038;7.216;2022-09-09T10:58:58;19.80;86.90
1129;DHT22;553;51.038;7.216;2022-09-09T11:01:39;19.90;88.00
1129;DHT22;553;51.038;7.216;2022-09-09T11:04:24;20.00;88.40
1129;DHT22;553;51.038;7.216;2022-09-09T11:06:55;20.10;88.00
1129;DHT22;553;51.038;7.216;2022-09-09T11:09:28;20.10;86.60
1129;DHT22;553;51.038;7.216;2022-09-09T11:11:58;20.10;86.80
1129;DHT22;553;51.038;7.216;2022-09-09T11:17:13;20.10;87.10
1129;DHT22;553;51.038;7.216;2022-09-09T11:19:43;20.10;86.70
1129;DHT22;553;51.038;7.216;2022-09-09T11:22:30;20.00;86.00
1129;DHT22;553;51.038;7.216;2022-09-09T11:25:31;20.10;86.60
1129;DHT22;553;51.038;7.216;2022-09-09T11:30:57;20.30;87.20
1129;DHT22;553;51.038;7.216;2022-09-09T11:33:55;20.40;86.60
1129;DHT22;553;51.038;7.216;2022-09-09T11:44:39;20.80;84.90
1129;DHT22;553;51.038;7.216;2022-09-09T11:47:29;20.80;82.60
1129;DHT22;553;51.038;7.216;2022-09-09T11:52:43;20.70;83.10
1129;DHT22;553;51.038;7.216;2022-09-09T11:55:30;20.60;82.40
1129;DHT22;553;51.038;7.216;2022-09-09T11:58:04;20.50;83.70
1129;DHT22;553;51.038;7.216;2022-09-09T12:00:46;20.60;84.10
1129;DHT22;553;51.038;7.216;2022-09-09T12:06:11;20.80;84.70
1129;DHT22;553;51.038;7.216;2022-09-09T12:08:43;20.80;83.20
1129;DHT22;553;51.038;7.216;2022-09-09T12:11:11;20.80;81.90
1129;DHT22;553;51.038;7.216;2022-09-09T12:13:38;20.80;82.00
1129;DHT22;553;51.038;7.216;2022-09-09T12:16:05;20.70;82.20
1129;DHT22;553;51.038;7.216;2022-09-09T12:21:11;20.80;82.90
1129;DHT22;553;51.038;7.216;2022-09-09T12:32:11;20.80;82.80
1129;DHT22;553;51.038;7.216;2022-09-09T12:34:51;20.80;82.10
1129;DHT22;553;51.038;7.216;2022-09-09T12:37:27;20.70;81.30
1129;DHT22;553;51.038;7.216;2022-09-09T12:40:02;20.70;82.10
1129;DHT22;553;51.038;7.216;2022-09-09T12:42:31;20.70;81.70
1129;DHT22;553;51.038;7.216;2022-09-09T12:45:19;20.60;82.40
1129;DHT22;553;51.038;7.216;2022-09-09T12:47:48;20.60;81.60
1129;DHT22;553;51.038;7.216;2022-09-09T12:50:19;20.60;82.40
1129;DHT22;553;51.038;7.216;2022-09-09T12:52:49;20.60;82.30
1129;DHT22;553;51.038;7.216;2022-09-09T12:55:23;20.60;83.30
1129;DHT22;553;51.038;7.216;2022-09-09T12:57:51;20.70;83.30
1129;DHT22;553;51.038;7.216;2022-09-09T13:00:21;20.80;82.80
1129;DHT22;553;51.038;7.216;2022-09-09T13:03:00;20.70;82.10
1129;DHT22;553;51.038;7.216;2022-09-09T13:05:38;20.70;81.90
1129;DHT22;553;51.038;7.216;2022-09-09T13:08:08;20.60;81.90
1129;DHT22;553;51.038;7.216;2022-09-09T13:10:44;20.60;82.70
1129;DHT22;553;51.038;7.216;2022-09-09T13:13:37;20.50;81.00
1129;DHT22;553;51.038;7.216;2022-09-09T13:16:06;20.50;80.90
1129;DHT22;553;51.038;7.216;2022-09-09T13:18:44;20.60;81.80
1129;DHT22;553;51.038;7.216;2022-09-09T13:21:11;20.60;82.10
1129;DHT22;553;51.038;7.216;2022-09-09T13:23:38;20.70;81.60
1129;DHT22;553;51.038;7.216;2022-09-09T13:26:23;20.80;81.20
1129;DHT22;553;51.038;7.216;2022-09-09T13:28:51;20.80;82.20
1129;DHT22;553;51.038;7.216;2022-09-09T13:33:50;21.10;81.50
1129;DHT22;553;51.038;7.216;2022-09-09T13:36:29;21.20;81.10
1129;DHT22;553;51.038;7.216;2022-09-09T13:38:58;21.30;80.80
1129;DHT22;553;51.038;7.216;2022-09-09T13:41:41;21.20;79.60
1129;DHT22;553;51.038;7.216;2022-09-09T13:44:23;21.00;79.90
1129;DHT22;553;51.038;7.216;2022-09-09T13:49:29;21.00;81.50
1129;DHT22;553;51.038;7.216;2022-09-09T13:52:18;20.90;81.80
1129;DHT22;553;51.038;7.216;2022-09-09T13:54:51;20.90;82.20
1129;DHT22;553;51.038;7.216;2022-09-09T13:57:21;20.90;82.60
1129;DHT22;553;51.038;7.216;2022-09-09T13:59:48;20.80;83.20
1129;DHT22;553;51.038;7.216;2022-09-09T14:02:32;20.70;83.60
1129;DHT22;553;51.038;7.216;2022-09-09T14:05:00;20.80;84.40
1129;DHT22;553;51.038;7.216;2022-09-09T14:07:27;21.00;84.50
1129;DHT22;553;51.038;7.216;2022-09-09T14:09:53;21.20;83.40
1129;DHT22;553;51.038;7.216;2022-09-09T14:12:20;21.20;83.20
1129;DHT22;553;51.038;7.216;2022-09-09T14:14:47;21.20;82.80
1129;DHT22;553;51.038;7.216;2022-09-09T14:17:13;21.20;83.00
1129;DHT22;553;51.038;7.216;2022-09-09T14:19:41;21.10;82.50
1129;DHT22;553;51.038;7.216;2022-09-09T14:22:07;21.20;82.30
1129;DHT22;553;51.038;7.216;2022-09-09T14:24:34;21.30;82.80
1129;DHT22;553;51.038;7.216;2022-09-09T14:27:01;21.30;82.30
1129;DHT22;553;51.038;7.216;2022-09-09T14:29:28;21.30;82.90
1129;DHT22;553;51.038;7.216;2022-09-09T14:31:54;21.40;82.60
1129;DHT22;553;51.038;7.216;2022-09-09T14:34:21;21.20;82.20
1129;DHT22;553;51.038;7.216;2022-09-09T14:36:48;21.20;82.70
1129;DHT22;553;51.038;7.216;2022-09-09T14:39:14;21.10;83.10
1129;DHT22;553;51.038;7.216;2022-09-09T14:41:41;21.20;82.80
1129;DHT22;553;51.038;7.216;2022-09-09T14:44:08;21.10;82.50
1129;DHT22;553;51.038;7.216;2022-09-09T14:46:34;21.00;82.10
1129;DHT22;553;51.038;7.216;2022-09-09T14:49:01;20.90;82.40
1129;DHT22;553;51.038;7.216;2022-09-09T14:51:28;20.90;83.40
1129;DHT22;553;51.038;7.216;2022-09-09T14:53:57;20.80;84.40
1129;DHT22;553;51.038;7.216;2022-09-09T14:56:27;20.80;84.50
1129;DHT22;553;51.038;7.216;2022-09-09T14:58:55;20.80;85.00
1129;DHT22;553;51.038;7.216;2022-09-09T15:01:23;20.70;85.10
1129;DHT22;553;51.038;7.216;2022-09-09T15:03:52;20.70;85.60
1129;DHT22;553;51.038;7.216;2022-09-09T15:06:21;20.70;85.90
1129;DHT22;553;51.038;7.216;2022-09-09T15:08:49;20.70;85.80
1129;DHT22;553;51.038;7.216;2022-09-09T15:11:16;20.60;88.50
1129;DHT22;553;51.038;7.216;2022-09-09T15:13:43;20.20;94.40
1129;DHT22;553;51.038;7.216;2022-09-09T15:16:18;19.40;97.90
1129;DHT22;553;51.038;7.216;2022-09-09T15:18:46;18.90;98.30
1129;DHT22;553;51.038;7.216;2022-09-09T15:21:15;18.60;99.40
1129;DHT22;553;51.038;7.216;2022-09-09T15:23:43;18.40;98.00
1129;DHT22;553;51.038;7.216;2022-09-09T15:26:10;18.50;98.90
1129;DHT22;553;51.038;7.216;2022-09-09T15:28:37;18.50;98.40
1129;DHT22;553;51.038;7.216;2022-09-09T15:33:33;18.80;99.90
1129;DHT22;553;51.038;7.216;2022-09-09T15:36:20;18.70;99.60
1129;DHT22;553;51.038;7.216;2022-09-09T15:38:48;18.90;99.90
1129;DHT22;553;51.038;7.216;2022-09-09T15:41:15;18.90;99.90
1129;DHT22;553;51.038;7.216;2022-09-09T15:43:48;18.80;99.90
1129;DHT22;553;51.038;7.216;2022-09-09T15:46:23;18.90;99.90
1129;DHT22;553;51.038;7.216;2022-09-09T15:49:14;19.00;99.90
1129;DHT22;553;51.038;7.216;2022-09-09T15:51:45;19.10;99.90
1129;DHT22;553;51.038;7.216;2022-09-09T15:54:14;19.10;99.90
1129;DHT22;553;51.038;7.216;2022-09-09T15:56:44;19.10;99.90
1129;DHT22;553;51.038;7.216;2022-09-09T15:59:10;19.10;99.90
1129;DHT22;553;51.038;7.216;2022-09-09T16:01:38;19.10;99.90
1129;DHT22;553;51.038;7.216;2022-09-09T16:04:08;19.10;99.90
1129;DHT22;553;51.038;7.216;2022-09-09T16:06:35;19.10;99.90
1129;DHT22;553;51.038;7.216;2022-09-09T16:09:04;19.00;99.90
1129;DHT22;553;51.038;7.216;2022-09-09T16:11:34;19.00;99.90
1129;DHT22;553;51.038;7.216;2022-09-09T16:14:02;19.00;99.90
1129;DHT22;553;51.038;7.216;2022-09-09T16:16:31;18.80;99.90
1129;DHT22;553;51.038;7.216;2022-09-09T16:18:59;18.90;99.90
1129;DHT22;553;51.038;7.216;2022-09-09T16:21:33;18.90;99.90
1129;DHT22;553;51.038;7.216;2022-09-09T16:24:02;18.90;99.90
1129;DHT22;553;51.038;7.216;2022-09-09T16:26:31;18.80;99.90
1129;DHT22;553;51.038;7.216;2022-09-09T16:28:59;18.50;99.90
1129;DHT22;553;51.038;7.216;2022-09-09T16:31:27;18.40;99.90
1129;DHT22;553;51.038;7.216;2022-09-09T16:33:55;18.20;99.90
1129;DHT22;553;51.038;7.216;2022-09-09T16:36:27;18.20;99.90
1129;DHT22;553;51.038;7.216;2022-09-09T16:38:56;18.20;99.90
1129;DHT22;553;51.038;7.216;2022-09-09T16:41:24;18.10;99.90
1129;DHT22;553;51.038;7.216;2022-09-09T16:43:56;18.10;99.90
1129;DHT22;553;51.038;7.216;2022-09-09T16:46:23;18.10;99.90
1129;DHT22;553;51.038;7.216;2022-09-09T16:48:51;18.00;99.90
1129;DHT22;553;51.038;7.216;2022-09-09T16:51:20;18.00;99.90
1129;DHT22;553;51.038;7.216;2022-09-09T16:53:47;17.90;99.90
1129;DHT22;553;51.038;7.216;2022-09-09T16:56:16;18.00;99.90
1129;DHT22;553;51.038;7.216;2022-09-09T16:58:43;18.00;99.90
1129;DHT22;553;51.038;7.216;2022-09-09T17:01:11;17.90;99.90
1129;DHT22;553;51.038;7.216;2022-09-09T17:03:40;17.90;99.90
1129;DHT22;553;51.038;7.216;2022-09-09T17:06:12;17.90;99.90
1129;DHT22;553;51.038;7.216;2022-09-09T17:08:39;18.00;99.90
1129;DHT22;553;51.038;7.216;2022-09-09T17:11:15;18.00;99.90
1129;DHT22;553;51.038;7.216;2022-09-09T17:13:43;17.90;99.90
1129;DHT22;553;51.038;7.216;2022-09-09T17:16:10;17.80;99.90
1129;DHT22;553;51.038;7.216;2022-09-09T17:18:38;17.80;99.90
1129;DHT22;553;51.038;7.216;2022-09-09T17:21:06;17.80;99.90
1129;DHT22;553;51.038;7.216;2022-09-09T17:23:35;17.80;99.90
1129;DHT22;553;51.038;7.216;2022-09-09T17:26:09;17.60;99.90
1129;DHT22;553;51.038;7.216;2022-09-09T17:28:37;17.60;99.90
1129;DHT22;553;51.038;7.216;2022-09-09T17:31:10;17.50;99.90
1129;DHT22;553;51.038;7.216;2022-09-09T17:33:40;17.60;99.90
1129;DHT22;553;51.038;7.216;2022-09-09T17:38:37;17.70;99.90
1129;DHT22;553;51.038;7.216;2022-09-09T17:41:06;17.60;99.90
1129;DHT22;553;51.038;7.216;2022-09-09T17:43:34;17.60;99.90
1129;DHT22;553;51.038;7.216;2022-09-09T17:48:36;17.50;99.90
1129;DHT22;553;51.038;7.216;2022-09-09T17:51:06;17.50;99.90
1129;DHT22;553;51.038;7.216;2022-09-09T17:53:43;17.50;99.90
1129;DHT22;553;51.038;7.216;2022-09-09T17:56:11;17.40;99.90
1129;DHT22;553;51.038;7.216;2022-09-09T17:58:39;17.30;99.90
1129;DHT22;553;51.038;7.216;2022-09-09T18:01:07;17.30;99.90
1129;DHT22;553;51.038;7.216;2022-09-09T18:03:41;17.30;99.90
1129;DHT22;553;51.038;7.216;2022-09-09T18:06:11;17.30;99.90
1129;DHT22;553;51.038;7.216;2022-09-09T18:08:46;17.30;99.90
1129;DHT22;553;51.038;7.216;2022-09-09T18:11:13;17.20;99.90
1129;DHT22;553;51.038;7.216;2022-09-09T18:13:39;17.20;99.90
1129;DHT22;553;51.038;7.216;2022-09-09T18:16:07;17.10;99.90
1129;DHT22;553;51.038;7.216;2022-09-09T18:18:35;17.10;99.90
1129;DHT22;553;51.038;7.216;2022-09-09T18:21:07;17.20;99.90
1129;DHT22;553;51.038;7.216;2022-09-09T18:23:35;17.20;99.90
1129;DHT22;553;51.038;7.216;2022-09-09T18:26:14;17.10;99.90
1129;DHT22;553;51.038;7.216;2022-09-09T18:28:42;17.10;99.90
1129;DHT22;553;51.038;7.216;2022-09-09T18:31:11;17.20;99.90
1129;DHT22;553;51.038;7.216;2022-09-09T18:33:39;17.20;99.90
1129;DHT22;553;51.038;7.216;2022-09-09T18:36:08;17.20;99.90
1129;DHT22;553;51.038;7.216;2022-09-09T18:38:36;17.20;99.90
1129;DHT22;553;51.038;7.216;2022-09-09T18:41:25;17.20;99.90
1129;DHT22;553;51.038;7.216;2022-09-09T18:43:54;17.10;99.90
1129;DHT22;553;51.038;7.216;2022-09-09T18:46:22;17.10;99.90
1129;DHT22;553;51.038;7.216;2022-09-09T18:48:49;17.10;99.90
1129;DHT22;553;51.038;7.216;2022-09-09T18:51:21;17.00;99.90
1129;DHT22;553;51.038;7.216;2022-09-09T18:53:55;17.00;99.90